ADDS TAF Data INFO
IDs: Format: Raw Decoded Include METARs

Data at: 0940 UTC 19 Jul 2018

KFHU 190858Z AUTO 26009KT 10SM CLR 23/17 A3020 RMK AO2 SLP144 T02310171 57008

TAF KFHU 190200Z 1902/2008 26012KT 9999 SCT080 QNH3015INS
  BECMG 1906/1907 VRB06KT 9999 SKC QNH3013INS
  BECMG 1920/1921 26012KT 9999 VCSH FEW120 QNH3011INS
  BECMG 2005/2006 VRB06KT 9999 NSW SKC QNH3015INS TX33/1921Z TN19/1911Z